createdAt,value
2018-06-23T00:01:27.886Z,9.80
2018-06-23T00:06:22.714Z,9.90
2018-06-23T00:08:50.143Z,9.80
2018-06-23T00:11:17.603Z,9.70
2018-06-23T00:13:45.022Z,9.80
2018-06-23T00:16:12.430Z,9.70
2018-06-23T00:18:39.866Z,9.50
2018-06-23T00:21:07.360Z,9.40
2018-06-23T00:23:34.790Z,9.20
2018-06-23T00:26:07.980Z,9.10
2018-06-23T00:28:35.394Z,9.00
2018-06-23T00:31:02.865Z,8.90
2018-06-23T00:35:57.651Z,8.80
2018-06-23T00:38:25.057Z,8.80
2018-06-23T00:40:52.473Z,8.80
2018-06-23T00:43:19.906Z,8.80
2018-06-23T00:45:47.293Z,8.70
2018-06-23T00:48:14.758Z,8.60
2018-06-23T00:50:42.162Z,8.50
2018-06-23T00:53:09.582Z,8.30
2018-06-23T00:55:37.013Z,8.40
2018-06-23T00:58:04.446Z,8.30
2018-06-23T01:00:31.906Z,8.20
2018-06-23T01:02:59.317Z,8.30
2018-06-23T01:05:26.794Z,8.50
2018-06-23T01:07:54.170Z,8.50
2018-06-23T01:10:21.577Z,8.50
2018-06-23T01:12:48.971Z,8.50
2018-06-23T01:15:16.435Z,8.30
2018-06-23T01:17:43.870Z,8.20
2018-06-23T01:20:11.294Z,8.20
2018-06-23T01:22:38.881Z,8.20
2018-06-23T01:25:06.298Z,8.20
2018-06-23T01:27:33.721Z,8.30
2018-06-23T01:30:01.222Z,8.30
2018-06-23T01:32:28.670Z,8.40
2018-06-23T01:34:56.117Z,8.40
2018-06-23T01:37:23.500Z,8.40
2018-06-23T01:39:50.916Z,8.30
2018-06-23T01:42:18.348Z,8.30
2018-06-23T01:44:45.769Z,8.30
2018-06-23T01:49:40.588Z,8.20
2018-06-23T01:52:07.999Z,8.20
2018-06-23T01:54:35.413Z,8.10
2018-06-23T01:57:02.922Z,8.00
2018-06-23T01:59:30.309Z,8.00
2018-06-23T02:01:57.724Z,7.90
2018-06-23T02:04:25.191Z,8.00
2018-06-23T02:06:52.608Z,8.10
2018-06-23T02:09:20.023Z,8.10
2018-06-23T02:11:47.489Z,8.10
2018-06-23T02:14:20.474Z,8.00
2018-06-23T02:16:53.597Z,7.90
2018-06-23T02:19:26.750Z,7.70
2018-06-23T02:21:59.928Z,7.60
2018-06-23T02:24:33.150Z,7.50
2018-06-23T02:27:06.381Z,7.40
2018-06-23T02:29:39.519Z,7.20
2018-06-23T02:32:12.769Z,7.00
2018-06-23T02:34:45.761Z,6.90
2018-06-23T02:37:13.214Z,6.70
2018-06-23T02:39:40.693Z,6.70
2018-06-23T02:42:08.125Z,6.70
2018-06-23T02:44:35.576Z,6.70
2018-06-23T02:47:03.046Z,6.70
2018-06-23T02:49:30.438Z,6.70
2018-06-23T02:51:57.842Z,6.70
2018-06-23T02:54:25.280Z,6.60
2018-06-23T02:56:52.700Z,6.70
2018-06-23T02:59:20.117Z,6.80
2018-06-23T03:01:48.327Z,6.80
2018-06-23T03:04:16.205Z,6.90
2018-06-23T03:06:43.595Z,6.90
2018-06-23T03:09:11.034Z,6.90
2018-06-23T03:11:38.433Z,6.90
2018-06-23T03:14:05.864Z,7.30
2018-06-23T03:16:33.298Z,8.10
2018-06-23T03:19:00.704Z,8.60
2018-06-23T03:21:28.125Z,9.90
2018-06-23T03:23:55.589Z,11.40
2018-06-23T03:26:22.986Z,12.00
2018-06-23T03:28:50.392Z,12.40
2018-06-23T03:31:17.817Z,12.70
2018-06-23T03:33:45.224Z,12.70
2018-06-23T03:36:12.638Z,13.60
2018-06-23T03:38:40.046Z,14.60
2018-06-23T03:41:07.449Z,14.60
2018-06-23T03:43:34.867Z,14.00
2018-06-23T03:46:02.302Z,15.10
2018-06-23T03:48:29.721Z,16.50
2018-06-23T03:50:57.144Z,18.40
2018-06-23T03:53:24.554Z,19.60
2018-06-23T03:55:52.001Z,20.60
2018-06-23T04:00:52.421Z,21.40
2018-06-23T04:06:22.237Z,22.00
2018-06-23T04:09:22.239Z,22.50
2018-06-23T04:11:52.662Z,22.00
2018-06-23T04:18:30.252Z,23.30
2018-06-23T04:27:52.386Z,24.90
2018-06-23T04:30:26.811Z,23.70
2018-06-23T04:33:07.105Z,23.60
2018-06-23T04:36:26.283Z,24.00
2018-06-23T04:38:54.701Z,24.10
2018-06-23T04:41:31.216Z,23.90
2018-06-23T04:48:42.649Z,23.90
2018-06-23T04:51:10.757Z,23.20
2018-06-23T04:53:45.441Z,22.30
2018-06-23T04:56:14.396Z,21.50
2018-06-23T05:01:34.497Z,20.90
2018-06-23T05:04:01.893Z,21.50
2018-06-23T05:06:29.321Z,21.40
2018-06-23T05:08:56.716Z,21.40
2018-06-23T05:11:24.208Z,20.90
2018-06-23T05:19:54.671Z,20.80
2018-06-23T05:25:35.589Z,20.60
2018-06-23T05:28:05.538Z,20.90
2018-06-23T05:30:51.912Z,21.80
2018-06-23T05:33:22.766Z,22.70
2018-06-23T05:38:49.804Z,23.30
2018-06-23T05:41:17.498Z,23.00
2018-06-23T05:43:46.415Z,22.70
2018-06-23T05:46:13.958Z,22.40
2018-06-23T05:48:41.615Z,22.30
2018-06-23T05:51:13.427Z,22.30
2018-06-23T05:53:44.713Z,22.50
2018-06-23T05:56:29.972Z,22.90
2018-06-23T05:58:57.697Z,23.10
2018-06-23T06:01:25.481Z,22.50
2018-06-23T06:04:02.971Z,22.50
2018-06-23T06:06:38.670Z,22.80
2018-06-23T06:09:10.686Z,22.90
2018-06-23T06:11:50.560Z,22.70
2018-06-23T06:14:42.354Z,22.90
2018-06-23T06:18:18.526Z,22.80
2018-06-23T06:20:53.792Z,23.10
2018-06-23T06:23:21.616Z,23.00
2018-06-23T06:26:00.299Z,22.80
2018-06-23T06:28:31.452Z,23.00
2018-06-23T06:31:07.466Z,22.50
2018-06-23T06:33:36.341Z,22.20
2018-06-23T06:36:04.557Z,20.70
2018-06-23T06:39:45.673Z,19.50
2018-06-23T06:42:17.772Z,18.70
2018-06-23T06:48:06.613Z,19.50
2018-06-23T06:50:36.705Z,21.00
2018-06-23T06:53:04.296Z,21.20
2018-06-23T06:59:04.041Z,21.40
2018-06-23T07:01:58.220Z,20.30
2018-06-23T07:04:27.234Z,20.10
2018-06-23T07:07:10.858Z,19.80
2018-06-23T07:09:38.348Z,18.70
2018-06-23T07:12:05.901Z,18.40
2018-06-23T07:14:33.313Z,17.90
2018-06-23T07:17:00.757Z,17.70
2018-06-23T07:19:28.246Z,17.60
2018-06-23T07:22:10.905Z,17.40
2018-06-23T07:24:39.669Z,17.00
2018-06-23T07:32:39.665Z,16.60
2018-06-23T07:35:07.255Z,16.80
2018-06-23T07:37:34.617Z,17.00
2018-06-23T07:40:02.304Z,16.90
2018-06-23T07:42:30.700Z,16.30
2018-06-23T07:44:58.766Z,16.10
2018-06-23T07:47:27.541Z,16.10
2018-06-23T07:53:34.416Z,15.90
2018-06-23T07:56:06.145Z,15.90
2018-06-23T07:58:34.239Z,15.80
2018-06-23T08:01:02.583Z,15.90
2018-06-23T08:03:30.946Z,16.20
2018-06-23T08:06:07.274Z,16.60
2018-06-23T08:08:49.750Z,16.50
2018-06-23T08:11:19.961Z,16.50
2018-06-23T08:13:54.076Z,16.30
2018-06-23T08:16:21.808Z,16.40
2018-06-23T08:18:52.065Z,16.60
2018-06-23T08:24:10.918Z,16.80
2018-06-23T08:29:24.528Z,16.70
2018-06-23T08:32:01.846Z,16.50
2018-06-23T08:34:29.632Z,16.20
2018-06-23T08:36:57.650Z,16.30
2018-06-23T08:45:28.986Z,16.00
2018-06-23T08:53:42.183Z,16.20
2018-06-23T08:56:12.269Z,16.30
2018-06-23T08:58:40.893Z,16.40
2018-06-23T09:01:16.849Z,16.50
2018-06-23T09:03:44.785Z,16.30
2018-06-23T09:06:16.276Z,16.20
2018-06-23T09:08:48.264Z,16.20
2018-06-23T09:11:17.735Z,16.30
2018-06-23T09:17:39.302Z,16.00
2018-06-23T09:20:17.911Z,16.00
2018-06-23T09:22:58.798Z,16.10
2018-06-23T09:25:43.803Z,16.10
2018-06-23T09:31:07.348Z,16.10
2018-06-23T09:33:37.287Z,16.20
2018-06-23T09:36:16.895Z,16.40
2018-06-23T09:38:46.464Z,16.60
2018-06-23T09:41:15.354Z,16.60
2018-06-23T09:43:43.632Z,16.70
2018-06-23T09:46:23.389Z,16.80
2018-06-23T09:51:31.248Z,17.00
2018-06-23T09:54:30.566Z,17.10
2018-06-23T09:56:58.686Z,17.10
2018-06-23T09:59:26.512Z,17.00
2018-06-23T10:04:41.477Z,17.10
2018-06-23T10:07:09.036Z,17.50
2018-06-23T10:09:36.453Z,17.80
2018-06-23T10:12:03.901Z,17.80
2018-06-23T10:16:59.375Z,17.80
2018-06-23T10:19:26.865Z,17.50
2018-06-23T10:21:54.269Z,17.30
2018-06-23T10:27:08.234Z,17.40
2018-06-23T10:29:35.681Z,17.50
2018-06-23T10:32:03.188Z,17.60
2018-06-23T10:34:37.672Z,17.50
2018-06-23T10:39:56.017Z,17.60
2018-06-23T10:44:36.072Z,17.60
2018-06-23T10:50:14.178Z,17.50
2018-06-23T10:52:42.967Z,17.70
2018-06-23T10:55:10.566Z,18.00
2018-06-23T10:57:42.181Z,18.00
2018-06-23T11:00:09.757Z,17.90
2018-06-23T11:02:37.188Z,17.80
2018-06-23T11:05:04.685Z,18.00
2018-06-23T11:07:42.815Z,18.00
2018-06-23T11:10:22.646Z,18.30
2018-06-23T11:12:50.306Z,18.50
2018-06-23T11:15:17.692Z,18.70
2018-06-23T11:17:45.141Z,18.60
2018-06-23T11:22:40.093Z,18.30
2018-06-23T11:25:07.514Z,18.40
2018-06-23T11:27:34.934Z,18.40
2018-06-23T11:30:02.330Z,18.30
2018-06-23T11:32:29.744Z,18.40
2018-06-23T11:34:57.169Z,18.20
2018-06-23T11:39:51.985Z,18.30
2018-06-23T11:44:46.861Z,19.00
2018-06-23T11:47:24.302Z,19.00
2018-06-23T11:49:51.910Z,19.20
2018-06-23T11:52:19.397Z,19.60
2018-06-23T11:54:46.786Z,19.70
2018-06-23T11:59:50.859Z,19.50
2018-06-23T12:02:20.169Z,19.40
2018-06-23T12:04:47.589Z,19.60
2018-06-23T12:09:42.606Z,19.60
2018-06-23T12:12:10.518Z,19.50
2018-06-23T12:17:12.257Z,19.40
2018-06-23T12:19:53.504Z,19.60
2018-06-23T12:22:21.963Z,19.70
2018-06-23T12:24:49.563Z,19.80
2018-06-23T12:27:17.083Z,19.80
2018-06-23T12:29:45.731Z,19.80
2018-06-23T12:32:32.268Z,19.90
2018-06-23T12:35:13.952Z,19.90
2018-06-23T12:37:41.345Z,19.80
2018-06-23T12:40:09.037Z,20.10
2018-06-23T12:42:36.464Z,19.90
2018-06-23T12:45:04.056Z,19.90
2018-06-23T12:48:02.962Z,20.20
2018-06-23T12:51:17.931Z,20.10
2018-06-23T12:53:45.354Z,19.90
2018-06-23T12:58:40.297Z,19.80
2018-06-23T13:01:14.909Z,19.70
2018-06-23T13:03:42.370Z,19.60
2018-06-23T13:06:33.645Z,19.70
2018-06-23T13:09:01.093Z,19.70
2018-06-23T13:11:28.482Z,19.90
2018-06-23T13:13:55.932Z,19.90
2018-06-23T13:16:23.389Z,19.50
2018-06-23T13:18:50.900Z,19.30
2018-06-23T13:21:18.448Z,19.00
2018-06-23T13:23:45.922Z,18.90
2018-06-23T13:28:40.695Z,19.80
2018-06-23T13:31:08.107Z,20.30
2018-06-23T13:33:35.603Z,20.90
2018-06-23T13:36:03.088Z,21.20
2018-06-23T13:38:32.242Z,21.20
2018-06-23T13:41:03.353Z,21.30
2018-06-23T13:43:30.798Z,21.10
2018-06-23T13:45:58.466Z,20.40
2018-06-23T13:48:31.355Z,19.90
2018-06-23T13:51:20.249Z,19.50
2018-06-23T13:53:47.928Z,19.30
2018-06-23T13:56:15.334Z,19.50
2018-06-23T13:58:42.774Z,19.90
2018-06-23T14:01:10.196Z,20.10
2018-06-23T14:03:51.802Z,20.30
2018-06-23T14:06:26.575Z,20.30
2018-06-23T14:08:54.131Z,20.20
2018-06-23T14:11:21.625Z,20.40
2018-06-23T14:13:49.106Z,20.60
2018-06-23T14:18:55.650Z,20.50
2018-06-23T14:21:38.074Z,20.00
2018-06-23T14:24:15.247Z,19.90
2018-06-23T14:26:50.039Z,19.60
2018-06-23T14:32:14.465Z,19.60
2018-06-23T14:35:12.734Z,19.60
2018-06-23T14:37:56.683Z,19.30
2018-06-23T14:41:29.225Z,19.30
2018-06-23T14:44:04.493Z,19.30
2018-06-23T14:46:36.281Z,19.10
2018-06-23T14:50:10.783Z,18.90
2018-06-23T14:52:42.452Z,18.60
2018-06-23T14:55:10.309Z,19.00
2018-06-23T15:03:57.595Z,19.80
2018-06-23T15:06:34.557Z,19.70
2018-06-23T15:10:19.824Z,19.50
2018-06-23T15:13:00.213Z,19.40
2018-06-23T15:15:44.367Z,19.40
2018-06-23T15:18:13.252Z,19.40
2018-06-23T15:20:41.416Z,19.50
2018-06-23T15:23:24.162Z,19.40
2018-06-23T15:26:39.950Z,19.10
2018-06-23T15:35:04.692Z,18.70
2018-06-23T15:37:42.536Z,18.60
2018-06-23T15:40:10.685Z,18.60
2018-06-23T15:42:38.958Z,18.60
2018-06-23T15:47:56.151Z,18.60
2018-06-23T15:50:29.209Z,18.40
2018-06-23T15:53:09.956Z,18.30
2018-06-23T15:57:59.980Z,18.30
2018-06-23T16:05:29.489Z,18.30
2018-06-23T16:08:04.087Z,18.20
2018-06-23T16:10:32.278Z,18.10
2018-06-23T16:13:00.630Z,18.10
2018-06-23T16:23:49.316Z,18.00
2018-06-23T16:26:24.981Z,18.10
2018-06-23T16:28:54.814Z,18.10
2018-06-23T16:31:37.414Z,18.30
2018-06-23T16:34:05.582Z,18.30
2018-06-23T16:36:33.243Z,18.30
2018-06-23T16:41:33.677Z,18.30
2018-06-23T16:44:01.518Z,18.30
2018-06-23T16:48:56.344Z,18.10
2018-06-23T16:51:30.418Z,18.30
2018-06-23T16:53:59.003Z,18.30
2018-06-23T16:56:28.135Z,18.30
2018-06-23T17:01:29.494Z,18.20
2018-06-23T17:07:09.192Z,18.30
2018-06-23T17:09:50.964Z,18.30
2018-06-23T17:12:28.437Z,18.40
2018-06-23T17:14:57.833Z,18.50
2018-06-23T17:22:05.469Z,18.70
2018-06-23T17:24:32.890Z,19.10
2018-06-23T17:30:18.193Z,19.60
2018-06-23T17:33:01.473Z,19.90
2018-06-23T17:35:28.892Z,20.30
2018-06-23T17:38:06.920Z,20.20
2018-06-23T17:40:37.208Z,20.20
2018-06-23T17:43:04.626Z,20.20
2018-06-23T17:45:32.067Z,19.80
2018-06-23T17:47:59.529Z,19.50
2018-06-23T17:53:12.867Z,19.10
2018-06-23T17:55:40.304Z,19.00
2018-06-23T17:58:07.900Z,18.80
2018-06-23T18:00:37.536Z,18.70
2018-06-23T18:03:05.113Z,18.40
2018-06-23T18:05:32.555Z,18.40
2018-06-23T18:10:55.901Z,18.70
2018-06-23T18:13:35.024Z,18.60
2018-06-23T18:16:05.584Z,18.30
2018-06-23T18:18:54.698Z,18.00
2018-06-23T18:21:24.232Z,17.80
2018-06-23T18:23:54.392Z,17.60
2018-06-23T18:26:23.615Z,17.30
2018-06-23T18:28:56.561Z,17.20
2018-06-23T18:31:33.195Z,17.00
2018-06-23T18:34:02.465Z,16.90
2018-06-23T18:36:31.539Z,16.80
2018-06-23T18:38:59.437Z,16.70
2018-06-23T18:41:27.686Z,16.70
2018-06-23T18:46:24.364Z,16.60
2018-06-23T18:48:52.879Z,16.40
2018-06-23T19:07:44.496Z,16.30
2018-06-23T19:10:13.888Z,15.40
2018-06-23T19:12:49.168Z,15.30
2018-06-23T19:15:30.111Z,15.30
2018-06-23T19:18:06.700Z,15.30
2018-06-23T19:20:43.826Z,15.30
2018-06-23T19:23:12.544Z,15.30
2018-06-23T19:25:45.334Z,15.20
2018-06-23T19:28:13.259Z,15.10
2018-06-23T19:30:57.240Z,15.00
2018-06-23T19:33:35.182Z,14.90
2018-06-23T19:36:03.307Z,14.70
2018-06-23T19:38:33.425Z,14.50
2018-06-23T19:41:06.401Z,14.50
2018-06-23T19:43:37.743Z,14.30
2018-06-23T19:46:11.430Z,14.10
2018-06-23T19:48:41.538Z,13.80
2018-06-23T19:51:16.815Z,13.60
2018-06-23T19:53:45.294Z,13.50
2018-06-23T20:01:16.162Z,13.50
2018-06-23T20:03:47.754Z,13.20
2018-06-23T20:06:15.633Z,13.00
2018-06-23T20:08:44.843Z,13.00
2018-06-23T20:11:12.639Z,12.80
2018-06-23T20:13:40.584Z,12.60
2018-06-23T20:16:08.710Z,12.40
2018-06-23T20:18:36.377Z,12.30
2018-06-23T20:21:04.548Z,12.10
2018-06-23T20:23:32.366Z,11.90
2018-06-23T20:26:01.937Z,11.80
2018-06-23T20:28:29.541Z,11.60
2018-06-23T20:30:57.498Z,11.40
2018-06-23T20:33:25.403Z,11.20
2018-06-23T20:35:53.407Z,11.00
2018-06-23T20:38:27.890Z,10.80
2018-06-23T20:40:56.206Z,10.70
2018-06-23T20:43:26.297Z,10.70
2018-06-23T20:45:54.510Z,10.70
2018-06-23T20:48:34.572Z,10.80
2018-06-23T20:51:27.928Z,11.00
2018-06-23T20:54:06.012Z,11.10
2018-06-23T20:56:37.512Z,11.30
2018-06-23T21:02:10.422Z,11.30
2018-06-23T21:04:44.109Z,11.10
2018-06-23T21:07:13.080Z,10.80
2018-06-23T21:09:43.040Z,10.40
2018-06-23T21:12:17.971Z,10.20
2018-06-23T21:36:51.837Z,10.50
2018-06-23T22:05:13.226Z,10.10
2018-06-23T22:11:46.948Z,9.80
2018-06-23T22:14:29.183Z,9.50
2018-06-23T23:23:08.314Z,6.00
